Freeland, Michigan
Current Conditions -  °F | °C
As of 2:53 AM on Sunday 26 Oct 2014 (Local Time) from KMBS Reporting Station
Clear Clear  
Wind Chill: 44°   Ceiling: Unl
Heat Index: 47°   Visibility: 10mi
Dew Point: 31°   Wind: 7mph
Humidity: 54%   Direction: 240°WSW
Pressure: 29.85"   Gusts: NA
Location:  43.52°N, 84.12°W
Report Text: KMBS 260653Z 24006KT 10SM CLR 08/M01 A2985 RMK AO2 SLP108 T00831006
Loading
Personal Weather Stations






























Interactive Weather Map
Tropical Storm Tracking
New forecast layout! Learn more

10-Day Weather Forecast

Advertisements
Track Severe Weather on mobile